Time;durP1;ratioP1;P1;durP2;ratioP2;P2;SDS_P1;SDS_P2;PMS_P1;PMS_P2;Temp;Humidity;BMP_temperature;BMP_pressure;BME280_temperature;BME280_humidity;BME280_pressure;Samples;Min_cycle;Max_cycle;Signal;HPM_P1;HPM_P2
2024/02/28 00:01:59;;;;;;;;;;;3.00;1.00;;;;;;4999619;28;19917;-81
2024/02/28 00:04:25;;;;;;;;;;;2.90;1.00;;;;;;4992527;28;20804;-84
2024/02/28 00:06:50;;;;;;;;;;;2.90;1.00;;;;;;5004204;28;19932;-85
2024/02/28 00:09:16;;;;;;;;;;;2.90;1.00;;;;;;5005128;28;19921;-84
2024/02/28 00:11:45;;;;;;;;;;;2.90;1.00;;;;;;4989667;28;20384;-82
2024/02/28 00:14:11;;;;;;;;;;;2.90;1.00;;;;;;5000686;28;19946;-83
2024/02/28 00:16:39;;;;;;;;;;;2.90;1.00;;;;;;5003890;28;19914;-85
2024/02/28 00:19:05;;;;;;;;;;;2.90;1.00;;;;;;5001442;28;19922;-84
2024/02/28 00:21:30;;;;;;;;;;;2.90;1.00;;;;;;5007063;28;19924;-83
2024/02/28 00:23:56;;;;;;;;;;;2.90;1.00;;;;;;5006590;28;20410;-84
2024/02/28 00:26:21;;;;;;;;;;;2.90;1.00;;;;;;5006451;28;19972;-83
2024/02/28 00:28:47;;;;;;;;;;;2.90;1.00;;;;;;5014839;28;19922;-83
2024/02/28 00:31:12;;;;;;;;;;;2.80;1.00;;;;;;5015501;28;19921;-83
2024/02/28 00:33:37;;;;;;;;;;;2.90;1.00;;;;;;5012327;28;19961;-83
2024/02/28 00:36:03;;;;;;;;;;;2.90;1.00;;;;;;5010776;28;19918;-82
2024/02/28 00:38:29;;;;;;;;;;;2.90;1.00;;;;;;5011024;28;20004;-83
2024/02/28 00:40:54;;;;;;;;;;;2.90;1.00;;;;;;5012299;28;19914;-83
2024/02/28 00:43:19;;;;;;;;;;;2.90;1.00;;;;;;5019374;28;19928;-83
2024/02/28 00:45:45;;;;;;;;;;;2.90;1.00;;;;;;5021861;28;19917;-84
2024/02/28 00:48:10;;;;;;;;;;;2.80;1.00;;;;;;5011735;28;19964;-82
2024/02/28 00:50:36;;;;;;;;;;;2.80;1.00;;;;;;5007080;28;20448;-82
2024/02/28 00:53:02;;;;;;;;;;;2.80;1.00;;;;;;5003620;28;19972;-82
2024/02/28 00:55:27;;;;;;;;;;;2.80;1.00;;;;;;4989802;28;19914;-83
2024/02/28 00:57:53;;;;;;;;;;;2.70;1.00;;;;;;5004927;28;19918;-82
2024/02/28 01:00:18;;;;;;;;;;;2.70;1.00;;;;;;4992301;28;20020;-82
2024/02/28 01:02:43;;;;;;;;;;;2.70;1.00;;;;;;5004197;28;19913;-83
2024/02/28 01:05:09;;;;;;;;;;;2.70;1.00;;;;;;5008064;28;19913;-85
2024/02/28 01:07:34;;;;;;;;;;;2.70;1.00;;;;;;5001818;28;20008;-83
2024/02/28 01:10:00;;;;;;;;;;;2.60;1.00;;;;;;5011014;28;20326;-82
2024/02/28 01:12:26;;;;;;;;;;;2.60;1.00;;;;;;4993799;28;20292;-83
2024/02/28 01:14:51;;;;;;;;;;;2.60;1.00;;;;;;4993019;28;20415;-84
2024/02/28 01:17:17;;;;;;;;;;;2.60;1.00;;;;;;5001020;28;19959;-82
2024/02/28 01:19:42;;;;;;;;;;;2.60;1.00;;;;;;4992176;28;19913;-81
2024/02/28 01:22:08;;;;;;;;;;;2.60;1.00;;;;;;4997521;28;19910;-82
2024/02/28 01:24:34;;;;;;;;;;;2.60;1.00;;;;;;5000698;28;19910;-81
2024/02/28 01:27:00;;;;;;;;;;;2.60;1.00;;;;;;5003666;28;19971;-81
2024/02/28 01:29:25;;;;;;;;;;;2.60;1.00;;;;;;4999605;28;20036;-82
2024/02/28 01:31:51;;;;;;;;;;;2.60;1.00;;;;;;4997342;28;20320;-82
2024/02/28 01:34:17;;;;;;;;;;;2.60;1.00;;;;;;4999607;28;19916;-83
2024/02/28 01:36:42;;;;;;;;;;;2.60;1.00;;;;;;4999507;28;20011;-82
2024/02/28 01:39:08;;;;;;;;;;;2.60;1.00;;;;;;5001149;28;19913;-83
2024/02/28 01:41:33;;;;;;;;;;;2.60;1.00;;;;;;5003841;28;19928;-81
2024/02/28 01:43:59;;;;;;;;;;;2.60;1.10;;;;;;5004481;28;19974;-83
2024/02/28 01:46:28;;;;;;;;;;;2.60;1.00;;;;;;4998799;28;19917;-82
2024/02/28 01:48:54;;;;;;;;;;;2.60;4.80;;;;;;5001088;28;19921;-81
2024/02/28 01:51:21;;;;;;;;;;;2.60;6.20;;;;;;4993741;28;19913;-82
2024/02/28 01:53:48;;;;;;;;;;;2.60;6.80;;;;;;5004368;28;20028;-82
2024/02/28 01:56:14;;;;;;;;;;;2.60;10.10;;;;;;5006022;28;19935;-81
2024/02/28 01:58:40;;;;;;;;;;;2.50;13.10;;;;;;5007599;28;19922;-86
2024/02/28 02:01:07;;;;;;;;;;;2.60;14.00;;;;;;5004911;28;20128;-81
2024/02/28 02:03:34;;;;;;;;;;;2.60;14.60;;;;;;4983720;28;19919;-82
2024/02/28 02:06:01;;;;;;;;;;;2.60;14.40;;;;;;4989313;28;20377;-82
2024/02/28 02:08:26;;;;;;;;;;;2.60;15.60;;;;;;5000688;28;19910;-82
2024/02/28 02:10:52;;;;;;;;;;;2.50;16.70;;;;;;5004452;28;19909;-82
2024/02/28 02:13:17;;;;;;;;;;;2.50;18.40;;;;;;5002837;28;19921;-83
2024/02/28 02:15:42;;;;;;;;;;;2.50;21.00;;;;;;5003571;28;19929;-82
2024/02/28 02:18:08;;;;;;;;;;;2.50;23.70;;;;;;5003728;28;19925;-82
2024/02/28 02:20:36;;;;;;;;;;;2.60;25.60;;;;;;5001852;28;20618;-82
2024/02/28 02:23:04;;;;;;;;;;;2.50;26.70;;;;;;5005383;28;19921;-83
2024/02/28 02:25:29;;;;;;;;;;;2.50;28.30;;;;;;4985271;28;19967;-82
2024/02/28 02:27:55;;;;;;;;;;;2.50;28.80;;;;;;5001910;28;19917;-83
2024/02/28 02:30:20;;;;;;;;;;;2.50;30.50;;;;;;5000825;28;19920;-82
2024/02/28 02:32:46;;;;;;;;;;;2.50;30.70;;;;;;5006432;28;20335;-81
2024/02/28 02:35:11;;;;;;;;;;;2.50;33.30;;;;;;4999778;28;19914;-82
2024/02/28 02:37:37;;;;;;;;;;;2.50;37.50;;;;;;4985990;28;20476;-84
2024/02/28 02:40:02;;;;;;;;;;;2.50;39.00;;;;;;5003354;28;19949;-83
2024/02/28 02:42:28;;;;;;;;;;;2.50;39.20;;;;;;5002741;28;19921;-85
2024/02/28 02:44:53;;;;;;;;;;;2.50;41.50;;;;;;5009375;28;20298;-83
2024/02/28 02:47:19;;;;;;;;;;;2.50;45.20;;;;;;5010156;28;19975;-83
2024/02/28 02:49:45;;;;;;;;;;;2.50;48.80;;;;;;5005943;28;19917;-82
2024/02/28 02:52:10;;;;;;;;;;;2.50;55.30;;;;;;5009135;28;20366;-83
2024/02/28 02:54:36;;;;;;;;;;;2.50;61.30;;;;;;5008014;28;19960;-82
2024/02/28 02:57:02;;;;;;;;;;;2.60;67.80;;;;;;5007344;28;19921;-83
2024/02/28 02:59:27;;;;;;;;;;;2.60;70.80;;;;;;5005443;28;19929;-84
2024/02/28 03:01:53;;;;;;;;;;;2.60;74.00;;;;;;5006509;28;19918;-84
2024/02/28 03:04:18;;;;;;;;;;;2.50;76.50;;;;;;5005806;28;20004;-83
2024/02/28 03:06:43;;;;;;;;;;;2.50;79.80;;;;;;5005262;28;19921;-82
2024/02/28 03:09:09;;;;;;;;;;;2.60;83.00;;;;;;5008123;28;20000;-84
2024/02/28 03:11:38;;;;;;;;;;;2.60;86.80;;;;;;5004635;28;20362;-83
2024/02/28 03:14:03;;;;;;;;;;;2.60;91.10;;;;;;4989883;28;19928;-83
2024/02/28 03:16:29;;;;;;;;;;;2.60;93.30;;;;;;5010109;28;20016;-82
2024/02/28 03:18:54;;;;;;;;;;;2.60;94.90;;;;;;4992540;28;19914;-86
2024/02/28 03:21:21;;;;;;;;;;;2.60;96.50;;;;;;5007928;28;19917;-83
2024/02/28 03:23:46;;;;;;;;;;;2.70;98.10;;;;;;4991804;28;20391;-84
2024/02/28 03:26:12;;;;;;;;;;;2.70;99.60;;;;;;5008436;28;19918;-83
2024/02/28 03:28:37;;;;;;;;;;;2.70;99.90;;;;;;4989538;28;20387;-83
2024/02/28 03:31:02;;;;;;;;;;;2.80;99.90;;;;;;5009365;28;20313;-83
2024/02/28 03:33:31;;;;;;;;;;;2.80;99.90;;;;;;5010610;28;19976;-81
2024/02/28 03:35:56;;;;;;;;;;;2.80;99.90;;;;;;5003548;28;19952;-82
2024/02/28 03:38:22;;;;;;;;;;;2.90;99.90;;;;;;5007969;28;19913;-84
2024/02/28 03:40:48;;;;;;;;;;;2.90;99.90;;;;;;5004542;28;20340;-83
2024/02/28 03:43:13;;;;;;;;;;;3.00;99.90;;;;;;5007022;28;19921;-84
2024/02/28 03:45:38;;;;;;;;;;;3.00;99.90;;;;;;5000446;28;19925;-83
2024/02/28 03:48:04;;;;;;;;;;;3.10;99.90;;;;;;5001427;28;20016;-83
2024/02/28 03:50:30;;;;;;;;;;;3.10;99.90;;;;;;5004627;28;19932;-83
2024/02/28 03:52:55;;;;;;;;;;;3.10;99.90;;;;;;5000932;28;19910;-84
2024/02/28 03:55:20;;;;;;;;;;;3.20;99.90;;;;;;5003202;28;19928;-84
2024/02/28 03:57:47;;;;;;;;;;;3.20;99.90;;;;;;5010533;28;19918;-83
2024/02/28 04:00:12;;;;;;;;;;;3.30;99.90;;;;;;5006551;28;19914;-82
2024/02/28 04:02:38;;;;;;;;;;;3.30;99.90;;;;;;5004973;28;19910;-80
2024/02/28 04:05:04;;;;;;;;;;;3.30;99.90;;;;;;5003447;28;20006;-81
2024/02/28 04:07:29;;;;;;;;;;;3.40;99.90;;;;;;5009444;28;19925;-84
2024/02/28 04:09:55;;;;;;;;;;;3.40;99.90;;;;;;5006684;28;19913;-82
2024/02/28 04:12:20;;;;;;;;;;;3.50;99.90;;;;;;5012538;28;20019;-83
2024/02/28 04:14:45;;;;;;;;;;;3.50;99.90;;;;;;5007788;28;19913;-83
2024/02/28 04:17:11;;;;;;;;;;;3.60;99.90;;;;;;5018526;28;19968;-83
2024/02/28 04:19:37;;;;;;;;;;;3.60;99.90;;;;;;5016956;28;19933;-84
2024/02/28 04:22:03;;;;;;;;;;;3.60;99.90;;;;;;5004675;28;19917;-82
2024/02/28 04:24:28;;;;;;;;;;;3.60;99.90;;;;;;5001698;28;19918;-83
2024/02/28 04:26:53;;;;;;;;;;;3.60;99.90;;;;;;4991359;28;19913;-83
2024/02/28 04:29:19;;;;;;;;;;;3.70;99.90;;;;;;5001532;28;19917;-83
2024/02/28 04:31:44;;;;;;;;;;;3.70;99.90;;;;;;5006913;28;19921;-83
2024/02/28 04:34:10;;;;;;;;;;;3.70;99.90;;;;;;5007596;28;19913;-81
2024/02/28 04:36:35;;;;;;;;;;;3.70;99.90;;;;;;5002299;28;20394;-82
2024/02/28 04:39:01;;;;;;;;;;;3.80;99.90;;;;;;5004603;28;20008;-83
2024/02/28 04:41:27;;;;;;;;;;;3.80;99.90;;;;;;5006588;28;19914;-82
2024/02/28 04:43:53;;;;;;;;;;;3.80;99.90;;;;;;5002490;28;19916;-83
2024/02/28 04:46:18;;;;;;;;;;;3.80;99.90;;;;;;5003581;28;19918;-83
2024/02/28 04:48:44;;;;;;;;;;;3.80;99.90;;;;;;5008420;28;19929;-84
2024/02/28 04:51:09;;;;;;;;;;;3.90;99.90;;;;;;5000375;28;19918;-83
2024/02/28 04:53:34;;;;;;;;;;;3.90;99.90;;;;;;5005447;28;20343;-83
2024/02/28 04:56:00;;;;;;;;;;;3.90;99.90;;;;;;4999841;28;19920;-83
2024/02/28 04:58:25;;;;;;;;;;;4.00;99.90;;;;;;4999746;28;19921;-83
2024/02/28 05:00:51;;;;;;;;;;;4.00;99.90;;;;;;5001251;28;19913;-82
2024/02/28 05:03:17;;;;;;;;;;;3.90;99.90;;;;;;5003959;28;20423;-83
2024/02/28 05:05:42;;;;;;;;;;;3.90;99.90;;;;;;5003103;28;20004;-81
2024/02/28 05:08:07;;;;;;;;;;;3.90;99.90;;;;;;4998868;28;20020;-83
2024/02/28 05:10:34;;;;;;;;;;;3.90;99.70;;;;;;5002362;28;19929;-82
2024/02/28 05:12:59;;;;;;;;;;;4.00;99.90;;;;;;5004655;28;20474;-83
2024/02/28 05:15:25;;;;;;;;;;;4.00;99.90;;;;;;5001574;28;19971;-83
2024/02/28 05:17:51;;;;;;;;;;;4.00;99.90;;;;;;5001067;28;19921;-83
2024/02/28 05:20:17;;;;;;;;;;;4.00;99.40;;;;;;4999079;28;19919;-83
2024/02/28 05:22:42;;;;;;;;;;;4.10;98.60;;;;;;4983183;28;19914;-83
2024/02/28 05:25:08;;;;;;;;;;;4.10;98.60;;;;;;4999543;28;19972;-83
2024/02/28 05:27:33;;;;;;;;;;;4.10;98.90;;;;;;4999617;28;19917;-83
2024/02/28 05:30:00;;;;;;;;;;;4.10;98.60;;;;;;4988958;28;19913;-83
2024/02/28 05:32:26;;;;;;;;;;;4.10;97.40;;;;;;4998818;28;19914;-84
2024/02/28 05:34:51;;;;;;;;;;;4.10;95.40;;;;;;5002242;28;19914;-84
2024/02/28 05:37:18;;;;;;;;;;;4.10;93.80;;;;;;4998882;28;19920;-83
2024/02/28 05:39:43;;;;;;;;;;;4.10;93.00;;;;;;5001528;28;19919;-82
2024/02/28 05:42:09;;;;;;;;;;;4.10;92.20;;;;;;4998828;28;20387;-83
2024/02/28 05:44:34;;;;;;;;;;;4.10;90.80;;;;;;5003208;28;19913;-83
2024/02/28 05:47:00;;;;;;;;;;;4.20;89.00;;;;;;4999709;28;19956;-83
2024/02/28 05:49:26;;;;;;;;;;;4.20;86.20;;;;;;5000128;28;19983;-82
2024/02/28 05:51:51;;;;;;;;;;;4.20;84.20;;;;;;4986959;28;19913;-82
2024/02/28 05:54:16;;;;;;;;;;;4.20;84.30;;;;;;5001751;28;20387;-83
2024/02/28 05:56:42;;;;;;;;;;;4.20;83.70;;;;;;5004778;28;20601;-84
2024/02/28 05:59:08;;;;;;;;;;;4.20;81.70;;;;;;5002622;28;19921;-83
2024/02/28 06:01:33;;;;;;;;;;;4.20;79.90;;;;;;5006234;28;20063;-83
2024/02/28 06:03:58;;;;;;;;;;;4.20;78.00;;;;;;5005710;28;20321;-84
2024/02/28 06:06:25;;;;;;;;;;;4.30;75.00;;;;;;4998413;28;19917;-83
2024/02/28 06:08:51;;;;;;;;;;;4.30;71.60;;;;;;5001998;28;19936;-84
2024/02/28 06:11:16;;;;;;;;;;;4.30;69.30;;;;;;4998536;28;19913;-84
2024/02/28 06:13:42;;;;;;;;;;;4.30;65.80;;;;;;4994704;28;19918;-83
2024/02/28 06:16:07;;;;;;;;;;;4.30;62.30;;;;;;4977849;28;20316;-83
2024/02/28 06:18:33;;;;;;;;;;;4.30;60.20;;;;;;5002903;28;20375;-84
2024/02/28 06:20:59;;;;;;;;;;;4.30;58.30;;;;;;5001960;28;20387;-85
2024/02/28 06:23:24;;;;;;;;;;;4.30;55.40;;;;;;5006454;28;19913;-84
2024/02/28 06:25:50;;;;;;;;;;;4.20;53.90;;;;;;4979965;28;19964;-83
2024/02/28 06:28:16;;;;;;;;;;;4.20;51.80;;;;;;5005291;28;19921;-83
2024/02/28 06:30:42;;;;;;;;;;;4.20;50.40;;;;;;4999636;28;19920;-84
2024/02/28 06:33:08;;;;;;;;;;;4.20;49.40;;;;;;4999359;28;19921;-83
2024/02/28 06:35:34;;;;;;;;;;;4.20;49.10;;;;;;5008315;28;20744;-83
2024/02/28 06:38:00;;;;;;;;;;;4.20;47.90;;;;;;4992148;28;20004;-84
2024/02/28 06:40:25;;;;;;;;;;;4.30;44.20;;;;;;5004816;28;20106;-82
2024/02/28 06:42:51;;;;;;;;;;;4.30;41.10;;;;;;5001007;28;19913;-82
2024/02/28 06:45:17;;;;;;;;;;;4.30;38.40;;;;;;5002763;28;19921;-83
2024/02/28 06:47:44;;;;;;;;;;;4.30;37.60;;;;;;5004244;28;20339;-83
2024/02/28 06:50:10;;;;;;;;;;;4.30;37.90;;;;;;5003307;28;20407;-84
2024/02/28 06:52:36;;;;;;;;;;;4.30;36.60;;;;;;5001581;28;19920;-83
2024/02/28 06:55:06;;;;;;;;;;;4.40;35.00;;;;;;5002926;28;19917;-83
2024/02/28 06:57:31;;;;;;;;;;;4.40;30.10;;;;;;5001041;28;19921;-84
2024/02/28 06:59:56;;;;;;;;;;;4.40;26.90;;;;;;4998022;28;20295;-84
2024/02/28 07:02:22;;;;;;;;;;;4.50;26.60;;;;;;5000840;28;19979;-84
2024/02/28 07:04:47;;;;;;;;;;;4.60;25.50;;;;;;4997505;28;19917;-83
2024/02/28 07:07:13;;;;;;;;;;;4.60;21.80;;;;;;4997147;28;19917;-85
2024/02/28 07:09:40;;;;;;;;;;;4.70;15.60;;;;;;4989402;28;19913;-83
2024/02/28 07:12:05;;;;;;;;;;;4.80;9.00;;;;;;5005240;28;19913;-84
2024/02/28 07:14:31;;;;;;;;;;;4.90;1.90;;;;;;4999954;28;19914;-86
2024/02/28 07:16:57;;;;;;;;;;;4.90;1.00;;;;;;4998848;28;19953;-86
2024/02/28 07:19:22;;;;;;;;;;;5.00;1.00;;;;;;5003307;28;19917;-83
2024/02/28 07:21:48;;;;;;;;;;;5.00;1.00;;;;;;5007211;28;20004;-83
2024/02/28 07:24:13;;;;;;;;;;;5.00;1.00;;;;;;4995386;28;19922;-81
2024/02/28 07:26:40;;;;;;;;;;;5.00;1.00;;;;;;5007483;28;19929;-81
2024/02/28 07:29:06;;;;;;;;;;;5.10;1.00;;;;;;5005350;28;20320;-82
2024/02/28 07:31:31;;;;;;;;;;;5.10;1.00;;;;;;5012903;28;19928;-80
2024/02/28 07:33:57;;;;;;;;;;;5.10;1.00;;;;;;5013806;28;19953;-82
2024/02/28 07:36:22;;;;;;;;;;;5.20;1.00;;;;;;4996183;28;19960;-82
2024/02/28 07:38:48;;;;;;;;;;;5.30;1.00;;;;;;5005573;28;19992;-82
2024/02/28 07:41:13;;;;;;;;;;;5.30;1.00;;;;;;5013127;28;19929;-83
2024/02/28 07:43:42;;;;;;;;;;;5.40;1.00;;;;;;5004120;28;19924;-83
2024/02/28 07:46:09;;;;;;;;;;;5.50;1.00;;;;;;5009189;28;20384;-83
2024/02/28 07:48:34;;;;;;;;;;;5.50;1.00;;;;;;4992739;28;19918;-84
2024/02/28 07:51:00;;;;;;;;;;;5.60;1.00;;;;;;5005521;28;20389;-81
2024/02/28 07:53:26;;;;;;;;;;;5.60;1.00;;;;;;5011951;28;19986;-82
2024/02/28 07:55:52;;;;;;;;;;;5.60;1.00;;;;;;5004861;28;19949;-83
2024/02/28 07:58:17;;;;;;;;;;;5.70;1.00;;;;;;4989407;28;19918;-81
2024/02/28 08:00:45;;;;;;;;;;;5.80;1.00;;;;;;4998085;28;20473;-82
2024/02/28 08:03:11;;;;;;;;;;;5.80;1.00;;;;;;4999291;28;19914;-83
2024/02/28 08:05:39;;;;;;;;;;;5.90;1.00;;;;;;5000732;28;19928;-82
2024/02/28 08:08:05;;;;;;;;;;;6.00;1.00;;;;;;5004026;28;19922;-82
2024/02/28 08:10:30;;;;;;;;;;;6.00;1.00;;;;;;4992098;28;20442;-83
2024/02/28 08:12:56;;;;;;;;;;;6.00;1.00;;;;;;5005250;28;20004;-84
2024/02/28 08:15:21;;;;;;;;;;;6.10;1.00;;;;;;5005912;28;19913;-83
2024/02/28 08:17:47;;;;;;;;;;;6.30;1.00;;;;;;4989363;28;19920;-81
2024/02/28 08:20:12;;;;;;;;;;;6.30;1.00;;;;;;5005606;28;20123;-84
2024/02/28 08:22:38;;;;;;;;;;;6.30;1.00;;;;;;4990257;28;19929;-82
2024/02/28 08:25:04;;;;;;;;;;;6.40;1.00;;;;;;5012465;28;19913;-82
2024/02/28 08:27:29;;;;;;;;;;;6.40;1.00;;;;;;5016181;28;20012;-82
2024/02/28 08:29:55;;;;;;;;;;;6.50;1.00;;;;;;5012857;28;19916;-83
2024/02/28 08:32:20;;;;;;;;;;;6.60;99.90;;;;;;5009895;28;19910;-82
2024/02/28 08:34:46;;;;;;;;;;;6.80;99.90;;;;;;4998909;28;19910;-82
2024/02/28 08:37:12;;;;;;;;;;;7.00;99.90;;;;;;5015582;28;20000;-82
2024/02/28 08:39:37;;;;;;;;;;;7.40;99.90;;;;;;5013075;28;19917;-84
2024/02/28 08:42:03;;;;;;;;;;;7.90;98.10;;;;;;4993951;28;19913;-82
2024/02/28 08:44:28;;;;;;;;;;;8.10;1.00;;;;;;5001001;28;19917;-82
2024/02/28 08:46:54;;;;;;;;;;;8.30;99.90;;;;;;4999439;28;20383;-83
2024/02/28 08:49:19;;;;;;;;;;;8.70;99.90;;;;;;5017153;28;19917;-84
2024/02/28 08:51:45;;;;;;;;;;;9.60;1.00;;;;;;5017540;28;20319;-83
2024/02/28 08:54:10;;;;;;;;;;;10.00;1.00;;;;;;5002178;28;20372;-83
2024/02/28 08:56:36;;;;;;;;;;;10.00;99.90;;;;;;4992388;28;19917;-83
2024/02/28 08:59:01;;;;;;;;;;;10.70;1.00;;;;;;4999949;28;20307;-82
2024/02/28 09:01:27;;;;;;;;;;;10.90;99.90;;;;;;4996355;28;19913;-81
2024/02/28 09:03:52;;;;;;;;;;;11.20;99.90;;;;;;5013941;28;19967;-83
2024/02/28 09:06:18;;;;;;;;;;;11.90;14.80;;;;;;4999997;28;19913;-82
2024/02/28 09:08:43;;;;;;;;;;;12.00;1.00;;;;;;5016941;28;19992;-82
2024/02/28 09:11:09;;;;;;;;;;;12.10;1.00;;;;;;4996890;28;19954;-85
2024/02/28 09:13:37;;;;;;;;;;;12.20;1.00;;;;;;5011927;28;19971;-84
2024/02/28 09:16:03;;;;;;;;;;;12.30;1.00;;;;;;5009234;28;19920;-83
2024/02/28 09:18:28;;;;;;;;;;;12.20;1.00;;;;;;5008027;28;20665;-81
2024/02/28 09:20:54;;;;;;;;;;;12.10;1.00;;;;;;5006717;28;20008;-81
2024/02/28 09:23:19;;;;;;;;;;;12.00;1.00;;;;;;5007508;28;19917;-83
2024/02/28 09:25:45;;;;;;;;;;;11.80;1.00;;;;;;5006152;28;19924;-83
2024/02/28 09:28:13;;;;;;;;;;;11.80;1.00;;;;;;5002859;28;20383;-83
2024/02/28 09:30:39;;;;;;;;;;;11.80;1.00;;;;;;5007068;28;20346;-84
2024/02/28 09:33:04;;;;;;;;;;;12.40;1.00;;;;;;5014383;28;19917;-83
2024/02/28 09:35:30;;;;;;;;;;;13.00;1.00;;;;;;5004037;28;19964;-83
2024/02/28 09:37:56;;;;;;;;;;;15.10;1.00;;;;;;4991337;28;19919;-82
2024/02/28 09:40:21;;;;;;;;;;;15.40;1.00;;;;;;4996656;28;20390;-82
2024/02/28 09:42:52;;;;;;;;;;;15.10;99.90;;;;;;4981714;28;19914;-84
2024/02/28 09:45:19;;;;;;;;;;;16.30;1.00;;;;;;4996622;28;19976;-83
2024/02/28 09:47:44;;;;;;;;;;;16.00;99.90;;;;;;5003656;28;19928;-82
2024/02/28 09:50:11;;;;;;;;;;;15.40;99.90;;;;;;5003935;28;20175;-83
2024/02/28 09:52:36;;;;;;;;;;;14.90;99.90;;;;;;5000837;28;19917;-82
2024/02/28 09:55:02;;;;;;;;;;;14.50;99.90;;;;;;4998576;28;19913;-84
2024/02/28 09:57:28;;;;;;;;;;;14.30;99.90;;;;;;4990887;28;19913;-82
2024/02/28 09:59:57;;;;;;;;;;;14.00;99.90;;;;;;4998930;28;20395;-83
2024/02/28 10:02:23;;;;;;;;;;;13.70;99.90;;;;;;5007322;28;19914;-84
2024/02/28 10:04:49;;;;;;;;;;;14.10;99.90;;;;;;4997795;28;20315;-83
2024/02/28 10:07:14;;;;;;;;;;;13.90;99.90;;;;;;4997675;28;20300;-84
2024/02/28 10:09:43;;;;;;;;;;;13.90;99.90;;;;;;4999218;28;19914;-83
2024/02/28 10:12:08;;;;;;;;;;;14.30;99.90;;;;;;5002705;28;19924;-82
2024/02/28 10:14:34;;;;;;;;;;;15.10;99.90;;;;;;5001589;28;19913;-83
2024/02/28 10:16:59;;;;;;;;;;;16.30;99.90;;;;;;5000685;28;19914;-83
2024/02/28 10:19:25;;;;;;;;;;;16.90;99.90;;;;;;5000418;28;19916;-83
2024/02/28 10:21:50;;;;;;;;;;;17.60;99.90;;;;;;5000427;28;20299;-82
2024/02/28 10:24:16;;;;;;;;;;;18.50;99.90;;;;;;4998544;28;19933;-84
2024/02/28 10:26:45;;;;;;;;;;;19.80;99.90;;;;;;5001002;28;19921;-83
2024/02/28 10:29:11;;;;;;;;;;;20.20;99.90;;;;;;5001095;28;19914;-84
2024/02/28 10:31:37;;;;;;;;;;;20.30;99.90;;;;;;4998683;28;20008;-84
2024/02/28 10:34:03;;;;;;;;;;;20.10;99.90;;;;;;4997912;28;20007;-82
2024/02/28 10:36:31;;;;;;;;;;;19.60;99.90;;;;;;5000356;28;19935;-86
2024/02/28 10:38:57;;;;;;;;;;;19.90;99.90;;;;;;4983986;28;19936;-85
2024/02/28 10:41:23;;;;;;;;;;;19.90;99.90;;;;;;5002021;28;19940;-84
2024/02/28 10:43:49;;;;;;;;;;;19.90;99.90;;;;;;4999489;28;19921;-83
2024/02/28 10:46:15;;;;;;;;;;;20.70;99.90;;;;;;4999730;28;19917;-85
2024/02/28 10:48:41;;;;;;;;;;;21.50;99.90;;;;;;4989993;28;20454;-83
2024/02/28 10:51:08;;;;;;;;;;;21.70;99.90;;;;;;4990190;28;19914;-83
2024/02/28 10:53:38;;;;;;;;;;;22.10;99.90;;;;;;4977402;28;20523;-83
2024/02/28 10:56:05;;;;;;;;;;;22.00;99.90;;;;;;4985981;28;19920;-84
2024/02/28 10:58:34;;;;;;;;;;;22.20;99.90;;;;;;4999527;28;19936;-84
2024/02/28 11:01:00;;;;;;;;;;;22.90;99.90;;;;;;5005520;28;20009;-85
2024/02/28 11:03:25;;;;;;;;;;;23.30;99.90;;;;;;5005839;28;20427;-83
2024/02/28 11:05:51;;;;;;;;;;;22.90;99.90;;;;;;5004715;28;19964;-84
2024/02/28 11:08:21;;;;;;;;;;;21.70;99.90;;;;;;5007123;28;19920;-83
2024/02/28 11:10:47;;;;;;;;;;;20.80;99.90;;;;;;5000895;28;20376;-83
2024/02/28 11:13:23;;;;;;;;;;;20.20;99.90;;;;;;5001972;28;19921;-85
2024/02/28 11:15:48;;;;;;;;;;;19.90;99.90;;;;;;5008802;28;19924;-82
2024/02/28 11:18:14;;;;;;;;;;;20.20;99.90;;;;;;5002447;28;20005;-83
2024/02/28 11:20:39;;;;;;;;;;;20.30;99.90;;;;;;5006985;28;19914;-83
2024/02/28 11:23:09;;;;;;;;;;;20.90;99.90;;;;;;5007976;28;20268;-86
2024/02/28 11:25:34;;;;;;;;;;;21.80;99.90;;;;;;5005683;28;19918;-84
2024/02/28 11:28:00;;;;;;;;;;;22.20;99.90;;;;;;5005161;28;19929;-83
2024/02/28 11:30:25;;;;;;;;;;;22.60;99.90;;;;;;4986212;28;19992;-82
2024/02/28 11:32:54;;;;;;;;;;;23.20;99.90;;;;;;5003655;28;19913;-84
2024/02/28 11:35:21;;;;;;;;;;;23.80;99.90;;;;;;5006878;28;20675;-84
2024/02/28 11:37:47;;;;;;;;;;;24.30;99.90;;;;;;5003679;28;19914;-83
2024/02/28 11:40:13;;;;;;;;;;;24.60;99.90;;;;;;4998451;28;19913;-84
2024/02/28 11:42:39;;;;;;;;;;;25.00;99.90;;;;;;5002712;28;19921;-85
2024/02/28 11:45:05;;;;;;;;;;;25.00;99.90;;;;;;4993928;28;19918;-85
2024/02/28 11:47:31;;;;;;;;;;;24.80;99.90;;;;;;4996614;28;19922;-85
2024/02/28 11:49:58;;;;;;;;;;;24.40;99.90;;;;;;4995754;28;19925;-84
2024/02/28 11:52:24;;;;;;;;;;;24.20;99.90;;;;;;4995385;28;19925;-83
2024/02/28 11:54:50;;;;;;;;;;;23.70;99.90;;;;;;4994340;28;20003;-83
2024/02/28 11:57:17;;;;;;;;;;;24.20;99.90;;;;;;4988006;28;20114;-84
2024/02/28 11:59:44;;;;;;;;;;;24.70;99.90;;;;;;4996906;28;19913;-83
2024/02/28 12:02:13;;;;;;;;;;;25.00;99.90;;;;;;4987876;28;19976;-85
2024/02/28 12:04:42;;;;;;;;;;;25.00;99.90;;;;;;4998236;28;20423;-83
2024/02/28 12:07:11;;;;;;;;;;;24.40;99.90;;;;;;4995571;28;19917;-84
2024/02/28 12:09:36;;;;;;;;;;;24.30;99.90;;;;;;4998751;28;19914;-83
2024/02/28 12:12:03;;;;;;;;;;;24.30;99.90;;;;;;4996072;28;20423;-86
2024/02/28 12:14:32;;;;;;;;;;;24.00;99.90;;;;;;4994724;28;19968;-83
2024/02/28 12:16:58;;;;;;;;;;;23.90;99.90;;;;;;4999674;28;20587;-82
2024/02/28 12:19:24;;;;;;;;;;;23.90;99.90;;;;;;5001789;28;19929;-84
2024/02/28 12:21:49;;;;;;;;;;;23.90;99.90;;;;;;4999812;28;20399;-82
2024/02/28 12:24:15;;;;;;;;;;;23.90;99.90;;;;;;4992165;28;19918;-82
2024/02/28 12:26:40;;;;;;;;;;;23.90;99.90;;;;;;4994495;28;19979;-83
2024/02/28 12:29:06;;;;;;;;;;;24.10;99.90;;;;;;5009559;28;19971;-83
2024/02/28 12:31:32;;;;;;;;;;;24.00;99.90;;;;;;5004531;28;20450;-83
2024/02/28 12:33:57;;;;;;;;;;;24.00;99.90;;;;;;5005576;28;20331;-84
2024/02/28 12:36:23;;;;;;;;;;;23.90;99.90;;;;;;5013368;28;19917;-85
2024/02/28 12:38:48;;;;;;;;;;;23.80;99.90;;;;;;5014571;28;19913;-84
2024/02/28 12:41:15;;;;;;;;;;;23.30;99.90;;;;;;4997371;28;20312;-83
2024/02/28 12:43:40;;;;;;;;;;;22.80;99.90;;;;;;5013035;28;19971;-83
2024/02/28 12:46:06;;;;;;;;;;;22.40;99.90;;;;;;5014751;28;19918;-83
2024/02/28 12:48:36;;;;;;;;;;;22.20;99.90;;;;;;5014632;28;19917;-83
2024/02/28 12:51:02;;;;;;;;;;;22.50;99.90;;;;;;5009671;28;19918;-84
2024/02/28 12:53:28;;;;;;;;;;;22.70;99.90;;;;;;5014387;28;19928;-84
2024/02/28 12:55:53;;;;;;;;;;;22.80;99.90;;;;;;5014772;28;19964;-83
2024/02/28 12:58:18;;;;;;;;;;;22.90;99.90;;;;;;5014820;28;19918;-83
2024/02/28 13:00:44;;;;;;;;;;;22.80;99.90;;;;;;5009904;28;19940;-83
2024/02/28 13:03:10;;;;;;;;;;;22.60;99.90;;;;;;5015345;28;19967;-82
2024/02/28 13:05:35;;;;;;;;;;;22.40;99.90;;;;;;4996884;28;20387;-82
2024/02/28 13:08:01;;;;;;;;;;;22.20;99.90;;;;;;5014811;28;20391;-83
2024/02/28 13:10:26;;;;;;;;;;;22.00;99.90;;;;;;5014287;28;19909;-82
2024/02/28 13:12:52;;;;;;;;;;;21.70;99.90;;;;;;5015116;28;19910;-83
2024/02/28 13:15:18;;;;;;;;;;;21.40;99.90;;;;;;5010551;28;19913;-85
2024/02/28 13:17:44;;;;;;;;;;;21.30;99.90;;;;;;5012365;28;19921;-84
2024/02/28 13:20:09;;;;;;;;;;;21.10;99.90;;;;;;5015276;28;19920;-83
2024/02/28 13:22:35;;;;;;;;;;;21.00;99.90;;;;;;5013147;28;19914;-83
2024/02/28 13:25:00;;;;;;;;;;;20.90;99.90;;;;;;5014828;28;19913;-83
2024/02/28 13:27:26;;;;;;;;;;;20.70;99.90;;;;;;5015121;28;20443;-82
2024/02/28 13:29:52;;;;;;;;;;;20.50;99.90;;;;;;5015777;28;19916;-83
2024/02/28 13:32:17;;;;;;;;;;;20.50;99.90;;;;;;5010597;28;19913;-83
2024/02/28 13:34:43;;;;;;;;;;;20.40;99.90;;;;;;5013903;28;19957;-83
2024/02/28 13:37:08;;;;;;;;;;;20.40;99.90;;;;;;5015664;28;19918;-84
2024/02/28 13:39:34;;;;;;;;;;;20.50;99.90;;;;;;5014881;28;20291;-83
2024/02/28 13:42:00;;;;;;;;;;;20.50;99.90;;;;;;5013988;28;19917;-84
2024/02/28 13:44:27;;;;;;;;;;;20.50;99.90;;;;;;4996993;28;19910;-82
2024/02/28 13:46:54;;;;;;;;;;;20.40;99.90;;;;;;5011588;28;20497;-84
2024/02/28 13:49:20;;;;;;;;;;;20.10;99.90;;;;;;5015436;28;19953;-84
2024/02/28 13:51:46;;;;;;;;;;;19.90;99.90;;;;;;5014866;28;20315;-83
2024/02/28 13:54:11;;;;;;;;;;;19.80;99.90;;;;;;5014921;28;19913;-83
2024/02/28 13:56:37;;;;;;;;;;;19.60;99.90;;;;;;5014512;28;19910;-83
2024/02/28 13:59:03;;;;;;;;;;;19.30;99.90;;;;;;4996390;28;19914;-83
2024/02/28 14:01:28;;;;;;;;;;;19.10;99.90;;;;;;5012638;28;19917;-82
2024/02/28 14:03:54;;;;;;;;;;;18.70;99.90;;;;;;5014654;28;20340;-83
2024/02/28 14:06:19;;;;;;;;;;;18.40;99.90;;;;;;5014966;28;19917;-84
2024/02/28 14:08:45;;;;;;;;;;;18.20;99.90;;;;;;5014749;28;20055;-84
2024/02/28 14:11:10;;;;;;;;;;;18.00;99.90;;;;;;5014632;28;19916;-83
2024/02/28 14:13:37;;;;;;;;;;;17.80;99.90;;;;;;5014295;28;19921;-82
2024/02/28 14:16:03;;;;;;;;;;;17.70;99.90;;;;;;5013301;28;19910;-82
2024/02/28 14:18:28;;;;;;;;;;;17.70;99.90;;;;;;5013386;28;19996;-82
2024/02/28 14:20:54;;;;;;;;;;;17.70;99.90;;;;;;5009342;28;20008;-83